Time;durP1;ratioP1;P1;durP2;ratioP2;P2;SDS_P1;SDS_P2;PMS_P1;PMS_P2;Temp;Humidity;BMP_temperature;BMP_pressure;BME280_temperature;BME280_humidity;BME280_pressure;Samples;Min_cycle;Max_cycle;Signal;HPM_P1;HPM_P2
2022/10/25 00:01:17;;;;;;;23.70;10.55;;;12.80;99.90;;;;;;5121492;27;20054;-68
2022/10/25 00:03:43;;;;;;;25.55;11.05;;;12.70;99.90;;;;;;5157683;27;20058;-72
2022/10/25 00:06:10;;;;;;;23.98;10.93;;;12.60;99.90;;;;;;5156400;27;20043;-69
2022/10/25 00:08:36;;;;;;;;;;;12.50;99.90;;;;;;5139081;27;20374;-70
2022/10/25 00:11:03;;;;;;;20.55;10.65;;;12.40;99.90;;;;;;5156388;27;19974;-68
2022/10/25 00:13:28;;;;;;;25.08;10.13;;;12.30;99.90;;;;;;5157569;27;20335;-69
2022/10/25 00:15:54;;;;;;;23.77;11.18;;;12.30;99.90;;;;;;5138574;27;20038;-69
2022/10/25 00:18:20;;;;;;;25.77;10.55;;;12.20;99.90;;;;;;5156531;27;20050;-69
2022/10/25 00:20:45;;;;;;;23.75;11.25;;;12.10;99.90;;;;;;5157313;27;20130;-70
2022/10/25 00:23:14;;;;;;;27.08;10.70;;;12.10;99.90;;;;;;5156852;27;20047;-69
2022/10/25 00:25:40;;;;;;;24.17;10.98;;;12.10;99.90;;;;;;5138484;27;20073;-69
2022/10/25 00:28:06;;;;;;;26.98;11.23;;;12.00;99.90;;;;;;5137570;27;20043;-69
2022/10/25 00:30:32;;;;;;;24.35;10.80;;;12.00;99.90;;;;;;5156626;27;20122;-69
2022/10/25 00:32:58;;;;;;;22.55;10.82;;;12.00;99.90;;;;;;5138389;27;20474;-70
2022/10/25 00:35:24;;;;;;;27.80;10.98;;;11.90;99.90;;;;;;5157129;27;20092;-69
2022/10/25 00:37:50;;;;;;;24.80;10.38;;;11.90;99.90;;;;;;5156674;27;20038;-69
2022/10/25 00:40:17;;;;;;;28.63;11.38;;;11.90;99.90;;;;;;5156604;27;20062;-68
2022/10/25 00:42:43;;;;;;;24.52;9.55;;;12.00;99.90;;;;;;5137704;27;20064;-68
2022/10/25 00:45:38;;;;;;;26.52;10.73;;;12.00;99.90;;;;;;5137402;27;20125;-69
2022/10/25 00:48:08;;;;;;;25.85;9.88;;;12.00;99.90;;;;;;5134303;27;20050;-68
2022/10/25 00:50:45;;;;;;;23.63;9.65;;;12.00;99.90;;;;;;5156086;27;20043;-68
2022/10/25 00:53:16;;;;;;;23.20;10.10;;;12.00;99.90;;;;;;5157519;27;20053;-70
2022/10/25 00:55:47;;;;;;;24.02;9.60;;;12.10;99.90;;;;;;5138517;27;20111;-70
2022/10/25 00:58:18;;;;;;;22.55;9.45;;;12.10;99.90;;;;;;5157030;27;20042;-70
2022/10/25 01:00:44;;;;;;;22.70;9.57;;;12.10;99.90;;;;;;5156029;27;20126;-68
2022/10/25 01:03:12;;;;;;;29.17;9.57;;;12.20;99.90;;;;;;5155891;27;20224;-70
2022/10/25 01:05:38;;;;;;;20.35;8.98;;;12.20;99.90;;;;;;5120116;27;20074;-70
2022/10/25 01:08:05;;;;;;;25.73;8.90;;;12.20;99.90;;;;;;5155894;27;20093;-68
2022/10/25 01:10:30;;;;;;;23.40;8.75;;;12.30;99.90;;;;;;5137497;27;20053;-70
2022/10/25 01:12:56;;;;;;;18.70;8.18;;;12.30;99.90;;;;;;5156546;27;20362;-69
2022/10/25 01:15:29;;;;;;;22.33;8.55;;;12.30;99.90;;;;;;5140206;27;20076;-70
2022/10/25 01:18:21;;;;;;;23.15;8.20;;;12.30;99.90;;;;;;5164336;27;20034;-71
2022/10/25 01:21:26;;;;;;;25.95;8.38;;;12.30;99.90;;;;;;5139288;27;20463;-71
2022/10/25 01:24:10;;;;;;;19.60;8.00;;;12.30;99.90;;;;;;5135082;27;20424;-74
2022/10/25 01:26:47;;;;;;;22.63;8.70;;;12.30;99.90;;;;;;5155727;27;20042;-70
2022/10/25 01:29:32;;;;;;;18.30;8.07;;;12.30;99.90;;;;;;5154994;27;20065;-70
2022/10/25 01:32:12;;;;;;;18.20;7.63;;;12.30;99.90;;;;;;5155204;27;20526;-70
2022/10/25 01:34:50;;;;;;;22.20;7.65;;;12.20;99.90;;;;;;5137843;27;20082;-70
2022/10/25 01:37:29;;;;;;;23.48;8.27;;;12.20;99.90;;;;;;5136078;27;20050;-70
2022/10/25 01:40:15;;;;;;;20.08;7.50;;;12.20;99.90;;;;;;5155130;27;20047;-70
2022/10/25 01:42:50;;;;;;;;;;;12.10;99.90;;;;;;5156350;27;20046;-71
2022/10/25 01:45:25;;;;;;;22.65;7.18;;;12.10;99.90;;;;;;5137018;27;19919;-70
2022/10/25 01:48:03;;;;;;;19.08;7.15;;;12.00;99.90;;;;;;5155162;27;20054;-70
2022/10/25 01:50:33;;;;;;;16.60;6.53;;;12.00;99.90;;;;;;5155152;27;20042;-74
2022/10/25 01:52:59;;;;;;;20.23;6.95;;;11.90;99.90;;;;;;5136760;27;20051;-70
2022/10/25 01:55:58;;;;;;;17.15;6.43;;;11.90;99.90;;;;;;5155075;27;20102;-70
2022/10/25 01:58:32;;;;;;;17.60;7.00;;;11.90;99.90;;;;;;5127797;27;20145;-70
2022/10/25 02:01:14;;;;;;;20.10;7.30;;;12.00;99.90;;;;;;5154583;27;20042;-71
2022/10/25 02:03:40;;;;;;;16.25;7.10;;;12.00;99.90;;;;;;5154923;27;20051;-70
2022/10/25 02:06:23;;;;;;;17.25;7.60;;;12.10;99.90;;;;;;5154805;27;20042;-70
2022/10/25 02:09:13;;;;;;;17.80;7.30;;;12.10;99.90;;;;;;5137156;27;20094;-70
2022/10/25 02:11:39;;;;;;;24.80;7.78;;;12.20;99.90;;;;;;5119225;27;20477;-71
2022/10/25 02:14:10;;;;;;;23.25;8.00;;;12.20;99.90;;;;;;5155158;27;20081;-68
2022/10/25 02:17:01;;;;;;;23.75;7.72;;;12.30;99.90;;;;;;5154845;27;20046;-68
2022/10/25 02:19:34;;;;;;;22.55;8.18;;;12.20;99.90;;;;;;5135052;27;20055;-68
2022/10/25 02:22:01;;;;;;;24.30;9.10;;;12.30;99.90;;;;;;5154758;27;20047;-70
2022/10/25 02:24:28;;;;;;;;;;;12.30;99.90;;;;;;5154752;27;20042;-71
2022/10/25 02:26:55;;;;;;;20.73;8.20;;;12.30;99.90;;;;;;5154405;27;19919;-69
2022/10/25 02:29:23;;;;;;;20.58;8.43;;;12.40;99.90;;;;;;5135592;27;20187;-70
2022/10/25 02:31:49;;;;;;;24.45;9.30;;;12.40;99.90;;;;;;5135476;27;20054;-70
2022/10/25 02:34:16;;;;;;;22.80;9.05;;;12.50;99.90;;;;;;5135917;27;20047;-70
2022/10/25 02:36:50;;;;;;;24.10;9.43;;;12.50;99.90;;;;;;5154269;27;20423;-70
2022/10/25 02:39:17;;;;;;;18.90;9.02;;;12.50;99.90;;;;;;5154810;27;20084;-69
2022/10/25 02:41:42;;;;;;;;;;;12.60;99.90;;;;;;5135765;27;20057;-68
2022/10/25 02:44:08;;;;;;;24.20;9.37;;;12.60;99.90;;;;;;5154449;27;19919;-70
2022/10/25 02:46:34;;;;;;;23.52;9.45;;;12.60;99.90;;;;;;5118768;27;20477;-70
2022/10/25 02:49:00;;;;;;;24.45;10.45;;;12.60;99.90;;;;;;5154152;27;20042;-73
2022/10/25 02:51:25;;;;;;;28.65;10.25;;;12.60;99.90;;;;;;5135745;27;20043;-70
2022/10/25 02:53:51;;;;;;;21.45;10.27;;;12.70;99.90;;;;;;5154459;27;20082;-70
2022/10/25 02:56:20;;;;;;;22.30;9.25;;;12.60;99.90;;;;;;5118887;27;20039;-69
2022/10/25 02:58:47;;;;;;;25.42;10.20;;;12.60;99.90;;;;;;5135743;27;20372;-70
2022/10/25 03:01:14;;;;;;;20.90;8.68;;;12.60;99.90;;;;;;5135024;27;20042;-71
2022/10/25 03:03:40;;;;;;;25.98;9.80;;;12.60;99.90;;;;;;5135004;27;20440;-70
2022/10/25 03:06:07;;;;;;;24.87;10.33;;;12.60;99.90;;;;;;5154372;27;20103;-70
2022/10/25 03:08:33;;;;;;;26.25;9.57;;;12.50;99.90;;;;;;5154002;27;20046;-70
2022/10/25 03:10:59;;;;;;;21.48;9.27;;;12.50;99.90;;;;;;5153805;27;20051;-69
2022/10/25 03:13:25;;;;;;;21.67;9.40;;;12.50;99.90;;;;;;5154401;27;20079;-69
2022/10/25 03:15:50;;;;;;;23.77;10.30;;;12.60;99.90;;;;;;5135501;27;20058;-70
2022/10/25 03:18:17;;;;;;;22.23;9.48;;;12.60;99.90;;;;;;5154603;27;20106;-70
2022/10/25 03:20:43;;;;;;;25.80;9.10;;;12.70;99.90;;;;;;5153716;27;20046;-69
2022/10/25 03:23:10;;;;;;;30.85;9.40;;;12.70;99.90;;;;;;5135452;27;20046;-68
2022/10/25 03:25:36;;;;;;;24.60;9.25;;;12.70;99.90;;;;;;5135760;27;20047;-69
2022/10/25 03:28:02;;;;;;;24.30;9.77;;;12.70;99.90;;;;;;5153510;27;20049;-70
2022/10/25 03:30:29;;;;;;;29.45;9.35;;;12.70;99.90;;;;;;5135460;27;20449;-70
2022/10/25 03:32:56;;;;;;;23.17;9.05;;;12.70;99.90;;;;;;5153693;27;20051;-69
2022/10/25 03:35:22;;;;;;;21.00;9.07;;;12.80;99.90;;;;;;5153459;27;20043;-70
2022/10/25 03:37:48;;;;;;;22.50;9.70;;;12.80;99.90;;;;;;5155177;27;20046;-69
2022/10/25 03:40:15;;;;;;;27.17;9.43;;;12.80;99.90;;;;;;5153817;27;20047;-72
2022/10/25 03:42:41;;;;;;;26.13;10.32;;;12.80;99.90;;;;;;5153667;27;20042;-70
2022/10/25 03:45:07;;;;;;;28.70;9.00;;;12.80;99.90;;;;;;5135145;27;20421;-73
2022/10/25 03:47:33;;;;;;;31.25;9.32;;;12.90;99.90;;;;;;5135304;27;20280;-70
2022/10/25 03:49:59;;;;;;;32.13;9.30;;;12.80;99.90;;;;;;5153639;27;20046;-71
2022/10/25 03:52:24;;;;;;;24.15;8.82;;;12.70;99.90;;;;;;5135219;27;20086;-70
2022/10/25 03:54:50;;;;;;;21.67;9.00;;;12.70;99.90;;;;;;5134460;27;20043;-70
2022/10/25 03:57:16;;;;;;;24.80;9.45;;;12.70;99.90;;;;;;5135119;27;20054;-70
2022/10/25 03:59:43;;;;;;;30.58;9.35;;;12.60;99.90;;;;;;5155478;27;20129;-69
2022/10/25 04:02:10;;;;;;;19.35;8.68;;;12.60;99.90;;;;;;5139264;27;20057;-72
2022/10/25 04:04:36;;;;;;;27.00;9.07;;;12.60;99.90;;;;;;5138742;27;20547;-70
2022/10/25 04:07:02;;;;;;;26.85;9.23;;;12.60;99.90;;;;;;5138653;27;20253;-70
2022/10/25 04:09:28;;;;;;;23.63;9.25;;;12.60;99.90;;;;;;5157264;27;20497;-70
2022/10/25 04:11:54;;;;;;;26.77;9.32;;;12.60;99.90;;;;;;5157487;27;20035;-70
2022/10/25 04:14:20;;;;;;;23.20;9.27;;;12.70;99.90;;;;;;5162933;27;20126;-70
2022/10/25 04:16:46;;;;;;;28.10;9.48;;;12.70;99.90;;;;;;5164252;27;20078;-70
2022/10/25 04:19:11;;;;;;;25.75;9.40;;;12.70;99.90;;;;;;5157825;27;20050;-72
2022/10/25 04:21:37;;;;;;;25.38;9.43;;;12.70;99.90;;;;;;5122118;27;20081;-70
2022/10/25 04:24:03;;;;;;;21.63;9.25;;;12.80;99.90;;;;;;5138535;27;20505;-70
2022/10/25 04:26:29;;;;;;;25.05;9.02;;;12.80;99.90;;;;;;5157110;27;20043;-70
2022/10/25 04:28:55;;;;;;;23.60;8.38;;;12.80;99.90;;;;;;5156677;27;20093;-71
2022/10/25 04:31:22;;;;;;;21.17;8.98;;;12.90;99.90;;;;;;5156849;27;20091;-69
2022/10/25 04:33:50;;;;;;;24.83;7.93;;;12.90;99.90;;;;;;5156697;27;20051;-70
2022/10/25 04:36:17;;;;;;;24.95;8.60;;;12.90;99.90;;;;;;5121420;27;20299;-70
2022/10/25 04:38:42;;;;;;;28.75;9.32;;;12.90;99.90;;;;;;5138017;27;20082;-70
2022/10/25 04:41:09;;;;;;;21.27;8.68;;;12.80;99.90;;;;;;5138737;27;20077;-69
2022/10/25 04:43:35;;;;;;;19.98;8.63;;;12.70;99.90;;;;;;5157100;27;20166;-69
2022/10/25 04:46:01;;;;;;;25.90;8.60;;;12.60;99.90;;;;;;5137675;27;20046;-70
2022/10/25 04:48:27;;;;;;;22.83;8.52;;;12.60;99.90;;;;;;5137886;27;20049;-70
2022/10/25 04:50:53;;;;;;;30.58;8.60;;;12.50;99.90;;;;;;5156619;27;20088;-72
2022/10/25 04:53:19;;;;;;;25.23;9.48;;;12.40;99.90;;;;;;5155848;27;20046;-70
2022/10/25 04:55:58;;;;;;;21.45;8.05;;;12.30;99.90;;;;;;5137859;27;20043;-71
2022/10/25 04:58:25;;;;;;;29.05;8.38;;;12.30;99.90;;;;;;5156711;27;20047;-70
2022/10/25 05:00:52;;;;;;;19.95;8.18;;;12.20;99.90;;;;;;5155973;27;20054;-70
2022/10/25 05:03:18;;;;;;;27.70;8.10;;;12.20;99.90;;;;;;5137522;27;20118;-74
2022/10/25 05:05:44;;;;;;;26.30;8.55;;;12.20;99.90;;;;;;5103345;27;20042;-71
2022/10/25 05:08:09;;;;;;;28.30;8.50;;;12.30;99.90;;;;;;5137765;27;20039;-71
2022/10/25 05:10:35;;;;;;;22.92;8.13;;;12.30;99.90;;;;;;5119146;27;20046;-71
2022/10/25 05:13:01;;;;;;;23.60;8.43;;;12.30;99.90;;;;;;5137593;27;20035;-70
2022/10/25 05:15:27;;;;;;;25.77;8.82;;;12.40;99.90;;;;;;5138599;27;20380;-70
2022/10/25 05:18:00;;;;;;;29.20;9.10;;;12.30;99.90;;;;;;5137768;27;20119;-70
2022/10/25 05:20:27;;;;;;;25.90;8.35;;;12.30;99.90;;;;;;5155752;27;20042;-70
2022/10/25 05:22:53;;;;;;;23.20;8.32;;;12.30;99.90;;;;;;5155801;27;20065;-70
2022/10/25 05:25:19;;;;;;;20.58;7.97;;;12.30;99.90;;;;;;5155408;27;20034;-74
2022/10/25 05:27:44;;;;;;;21.77;8.27;;;12.30;99.90;;;;;;5156575;27;20050;-70
2022/10/25 05:30:11;;;;;;;23.55;7.70;;;12.40;99.90;;;;;;5155411;27;20502;-70
2022/10/25 05:32:38;;;;;;;20.30;7.53;;;12.40;99.90;;;;;;5137242;27;20058;-72
2022/10/25 05:35:04;;;;;;;24.02;7.68;;;12.40;99.90;;;;;;5136864;27;20046;-71
2022/10/25 05:37:30;;;;;;;23.42;7.18;;;12.40;99.90;;;;;;5155077;27;20043;-68
2022/10/25 05:39:56;;;;;;;22.10;7.00;;;12.50;99.90;;;;;;5137181;27;20046;-68
2022/10/25 05:42:21;;;;;;;26.02;6.78;;;12.50;99.90;;;;;;5119197;27;20483;-71
2022/10/25 05:44:47;;;;;;;28.33;6.88;;;12.40;99.90;;;;;;5136253;27;20168;-69
2022/10/25 05:47:13;;;;;;;23.13;6.93;;;12.40;99.90;;;;;;5154871;27;20043;-70
2022/10/25 05:49:41;;;;;;;21.40;6.22;;;12.30;99.90;;;;;;5136338;27;20089;-69
2022/10/25 05:52:08;;;;;;;23.33;6.85;;;12.30;99.90;;;;;;5137349;27;20046;-68
2022/10/25 05:54:34;;;;;;;23.40;6.57;;;12.30;99.90;;;;;;5155414;27;20081;-69
2022/10/25 05:56:59;;;;;;;20.92;6.32;;;12.20;99.90;;;;;;5155698;27;20331;-69
2022/10/25 05:59:25;;;;;;;26.15;6.72;;;12.10;99.90;;;;;;5119260;27;20051;-70
2022/10/25 06:01:51;;;;;;;21.50;6.60;;;12.10;99.90;;;;;;5102251;27;20085;-70
2022/10/25 06:04:17;;;;;;;20.65;6.30;;;12.10;99.90;;;;;;5119034;27;20502;-70
2022/10/25 06:06:44;;;;;;;19.13;6.30;;;12.00;99.90;;;;;;5155525;27;20047;-69
2022/10/25 06:09:11;;;;;;;22.88;6.80;;;11.90;99.90;;;;;;5119247;27;20118;-68
2022/10/25 06:11:38;;;;;;;23.02;6.60;;;11.90;99.90;;;;;;5135736;27;20455;-69
2022/10/25 06:14:04;;;;;;;19.65;7.03;;;11.80;99.90;;;;;;5136275;27;20043;-69
2022/10/25 06:16:30;;;;;;;17.10;5.75;;;11.80;99.90;;;;;;5136150;27;20047;-70
2022/10/25 06:18:57;;;;;;;24.10;6.85;;;11.80;99.90;;;;;;5136171;27;20049;-70
2022/10/25 06:21:25;;;;;;;22.08;6.43;;;11.90;99.90;;;;;;5135886;27;20042;-70
2022/10/25 06:24:01;;;;;;;23.80;6.78;;;11.80;99.90;;;;;;5154449;27;20049;-69
2022/10/25 06:26:29;;;;;;;24.23;7.38;;;11.90;99.90;;;;;;5136304;27;20046;-69
2022/10/25 06:28:58;;;;;;;30.52;6.90;;;12.00;99.90;;;;;;5154314;27;20226;-69
2022/10/25 06:31:24;;;;;;;26.23;7.55;;;12.00;99.90;;;;;;5135352;27;20479;-70
2022/10/25 06:33:50;;;;;;;27.25;6.68;;;12.10;99.90;;;;;;5118843;27;20136;-70
2022/10/25 06:36:18;;;;;;;26.30;7.00;;;12.20;99.90;;;;;;5135887;27;20134;-70
2022/10/25 06:38:44;;;;;;;23.38;6.45;;;12.30;99.90;;;;;;5118522;27;20079;-71
2022/10/25 06:41:12;;;;;;;30.20;7.15;;;12.30;99.90;;;;;;5154415;27;20337;-69
2022/10/25 06:43:38;;;;;;;27.70;8.35;;;12.40;99.90;;;;;;5155807;27;20134;-70
2022/10/25 06:46:09;;;;;;;26.98;7.28;;;12.50;99.90;;;;;;5135317;27;20058;-70
2022/10/25 06:48:35;;;;;;;29.13;7.90;;;12.50;99.90;;;;;;5119124;27;20051;-70
2022/10/25 06:51:07;;;;;;;25.25;6.90;;;12.50;99.90;;;;;;5118978;27;20050;-70
2022/10/25 06:53:33;;;;;;;25.60;7.05;;;12.40;99.90;;;;;;5135987;27;20043;-68
2022/10/25 06:56:05;;;;;;;23.75;7.10;;;12.40;99.90;;;;;;5135816;27;20479;-70
2022/10/25 06:58:32;;;;;;;22.52;6.85;;;12.40;99.90;;;;;;5154440;27;20047;-71
2022/10/25 07:01:02;;;;;;;25.92;6.85;;;12.50;99.90;;;;;;5135513;27;20046;-71
2022/10/25 07:03:33;;;;;;;21.92;6.85;;;12.50;99.90;;;;;;5135912;27;20393;-71
2022/10/25 07:06:05;;;;;;;28.33;7.20;;;12.50;99.90;;;;;;5154788;27;20138;-69
2022/10/25 07:08:34;;;;;;;22.98;6.32;;;12.50;99.90;;;;;;5136454;27;20046;-70
2022/10/25 07:11:00;;;;;;;23.58;6.70;;;12.50;99.90;;;;;;5138766;27;20438;-71
2022/10/25 07:13:26;;;;;;;22.02;6.75;;;12.60;99.90;;;;;;5145426;27;20108;-70
2022/10/25 07:15:52;;;;;;;23.15;6.43;;;12.60;99.90;;;;;;5159704;27;20050;-70
2022/10/25 07:18:18;;;;;;;28.25;7.43;;;12.60;99.90;;;;;;5102564;27;20070;-70
2022/10/25 07:20:47;;;;;;;29.15;7.28;;;12.70;99.90;;;;;;5154140;27;20064;-70
2022/10/25 07:23:14;;;;;;;24.35;7.00;;;12.70;99.90;;;;;;5136144;27;20053;-69
2022/10/25 07:25:40;;;;;;;30.00;7.45;;;12.70;99.90;;;;;;5135536;27;20121;-69
2022/10/25 07:28:06;;;;;;;25.45;8.15;;;12.80;99.90;;;;;;5154255;27;20078;-69
2022/10/25 07:30:32;;;;;;;24.58;7.55;;;12.90;99.90;;;;;;5135442;27;20567;-68
2022/10/25 07:32:58;;;;;;;22.33;6.15;;;13.00;99.90;;;;;;5135437;27;20093;-70
2022/10/25 07:35:23;;;;;;;23.92;7.40;;;13.20;99.90;;;;;;5139681;27;20051;-70
2022/10/25 07:37:49;;;;;;;24.83;7.10;;;13.30;99.90;;;;;;5139367;27;20046;-69
2022/10/25 07:40:15;;;;;;;27.17;7.35;;;13.40;99.90;;;;;;5158156;27;20038;-69
2022/10/25 07:42:40;;;;;;;27.67;7.97;;;13.40;99.90;;;;;;5139509;27;20407;-68
2022/10/25 07:45:07;;;;;;;23.85;7.07;;;13.30;99.90;;;;;;5158248;27;20122;-70
2022/10/25 07:47:32;;;;;;;24.67;7.85;;;13.30;99.90;;;;;;5158588;27;20047;-72
2022/10/25 07:49:59;;;;;;;22.05;7.70;;;13.40;99.90;;;;;;5158767;27;20050;-69
2022/10/25 07:52:25;;;;;;;25.75;7.88;;;13.40;99.90;;;;;;5141214;27;20047;-70
2022/10/25 07:54:50;;;;;;;22.65;8.57;;;13.40;99.90;;;;;;5140404;27;20431;-70
2022/10/25 07:57:16;;;;;;;26.25;7.70;;;13.50;99.90;;;;;;5140551;27;20095;-70
2022/10/25 07:59:42;;;;;;;18.48;7.90;;;13.40;99.90;;;;;;5144763;27;20074;-70
2022/10/25 08:02:11;;;;;;;27.48;7.78;;;13.40;99.90;;;;;;5146538;27;20042;-70
2022/10/25 08:04:37;;;;;;;22.38;8.02;;;13.40;99.90;;;;;;5166304;27;20038;-70
2022/10/25 08:07:03;;;;;;;23.65;7.45;;;13.50;99.90;;;;;;5171505;27;20035;-70
2022/10/25 08:09:28;;;;;;;25.02;8.27;;;13.40;99.90;;;;;;5160677;27;20050;-70
2022/10/25 08:11:54;;;;;;;26.42;8.30;;;13.50;99.90;;;;;;5141998;27;20096;-69
2022/10/25 08:14:20;;;;;;;22.88;8.23;;;13.40;99.90;;;;;;5173784;27;20050;-69
2022/10/25 08:16:47;;;;;;;23.45;8.63;;;13.60;99.90;;;;;;5165838;27;20043;-71
2022/10/25 08:19:14;;;;;;;25.25;9.02;;;13.60;99.90;;;;;;5142961;27;20378;-69
2022/10/25 08:21:41;;;;;;;22.02;8.65;;;13.70;99.90;;;;;;5107999;27;20085;-70
2022/10/25 08:24:06;;;;;;;20.55;7.97;;;13.80;99.90;;;;;;5160451;27;20047;-71
2022/10/25 08:26:32;;;;;;;22.25;9.05;;;13.90;99.90;;;;;;5162461;27;20065;-69
2022/10/25 08:28:58;;;;;;;29.17;8.52;;;14.00;99.90;;;;;;5138526;27;20065;-69
2022/10/25 08:31:23;;;;;;;21.85;8.77;;;14.10;99.90;;;;;;5138933;27;20050;-69
2022/10/25 08:33:49;;;;;;;21.75;8.75;;;14.10;99.90;;;;;;5138562;27;20126;-69
2022/10/25 08:36:15;;;;;;;19.98;8.38;;;14.10;99.90;;;;;;5121845;27;20134;-69
2022/10/25 08:38:40;;;;;;;21.20;8.07;;;14.10;99.90;;;;;;5159930;27;20081;-71
2022/10/25 08:41:24;;;;;;;19.80;8.25;;;14.10;99.90;;;;;;5124582;27;20050;-71
2022/10/25 08:43:59;;;;;;;23.63;8.18;;;14.30;99.90;;;;;;5159058;27;20102;-70
2022/10/25 08:46:37;;;;;;;22.63;7.82;;;14.40;99.90;;;;;;5159178;27;20109;-69
2022/10/25 08:49:12;;;;;;;20.63;7.68;;;14.40;99.90;;;;;;5159515;27;20047;-70
2022/10/25 08:51:42;;;;;;;21.88;6.18;;;14.40;99.90;;;;;;5157644;27;20494;-73
2022/10/25 08:54:20;;;;;;;22.63;7.93;;;14.50;99.90;;;;;;5139934;27;20038;-69
2022/10/25 08:56:48;;;;;;;19.77;7.80;;;14.40;99.90;;;;;;5139533;27;20039;-70
2022/10/25 08:59:18;;;;;;;19.08;8.10;;;14.40;99.90;;;;;;5120785;27;20194;-69
2022/10/25 09:01:49;;;;;;;18.27;7.32;;;14.40;99.90;;;;;;5138592;27;20090;-69
2022/10/25 09:04:14;;;;;;;17.30;6.95;;;14.50;99.90;;;;;;5121807;27;20066;-70
2022/10/25 09:06:56;;;;;;;18.20;6.85;;;14.60;99.90;;;;;;5137851;27;20062;-70
2022/10/25 09:09:49;;;;;;;21.35;7.43;;;14.70;99.90;;;;;;5157706;27;20069;-70
2022/10/25 09:12:53;;;;;;;19.48;6.43;;;14.80;99.90;;;;;;5138492;27;20043;-71
2022/10/25 09:15:31;;;;;;;16.88;6.20;;;14.90;99.90;;;;;;5064844;27;20192;-71
2022/10/25 09:17:57;;;;;;;22.65;6.25;;;15.10;99.90;;;;;;5156830;27;20080;-69
2022/10/25 09:20:46;;;;;;;18.08;5.80;;;15.20;99.90;;;;;;5139125;27;20351;-70
2022/10/25 09:23:31;;;;;;;13.30;4.93;;;15.30;99.90;;;;;;5156795;27;20062;-70
2022/10/25 09:26:18;;;;;;;18.63;6.20;;;15.50;99.90;;;;;;5138840;27;20169;-70
2022/10/25 09:28:47;;;;;;;18.20;5.70;;;15.30;99.90;;;;;;5161123;27;20141;-68
2022/10/25 09:31:17;;;;;;;16.05;5.43;;;15.30;99.90;;;;;;5127889;27;20065;-69
2022/10/25 09:33:46;;;;;;;17.77;5.65;;;15.40;99.90;;;;;;5147921;27;20051;-69
2022/10/25 09:36:13;;;;;;;14.63;4.78;;;;;;;;;;5167225;27;20046;-69
2022/10/25 09:38:56;;;;;;;13.98;4.97;;;15.50;99.90;;;;;;5139272;27;20074;-70
2022/10/25 09:41:34;;;;;;;17.13;5.13;;;15.50;99.90;;;;;;5119996;27;20129;-70
2022/10/25 09:44:14;;;;;;;14.02;4.25;;;15.40;99.90;;;;;;5155617;27;20152;-70
2022/10/25 09:47:01;;;;;;;13.50;4.43;;;15.40;99.90;;;;;;5156087;27;20065;-68
2022/10/25 09:49:37;;;;;;;14.38;4.53;;;15.50;99.90;;;;;;5136929;27;20142;-69
2022/10/25 09:52:25;;;;;;;15.60;4.07;;;15.50;99.90;;;;;;5136708;27;20122;-69
2022/10/25 09:55:05;;;;;;;15.55;4.15;;;15.60;99.90;;;;;;5154807;27;20138;-70
2022/10/25 09:57:31;;;;;;;10.43;3.42;;;15.50;99.90;;;;;;5155033;27;20051;-70
2022/10/25 10:00:11;;;;;;;16.90;4.78;;;15.40;99.90;;;;;;5119847;27;20451;-71
2022/10/25 10:02:37;;;;;;;12.15;3.70;;;15.40;99.90;;;;;;5156437;27;20134;-69
2022/10/25 10:05:05;;;;;;;14.90;3.55;;;15.40;99.90;;;;;;5138806;27;20131;-69
2022/10/25 10:07:35;;;;;;;9.63;3.08;;;15.40;99.90;;;;;;5139660;27;20047;-70
2022/10/25 10:10:07;;;;;;;15.52;3.42;;;15.60;99.90;;;;;;5139918;27;20077;-68
2022/10/25 10:12:58;;;;;;;16.00;3.63;;;15.70;99.90;;;;;;5165580;27;20054;-70
2022/10/25 10:15:42;;;;;;;18.40;3.00;;;15.90;99.90;;;;;;5160091;27;20438;-69
2022/10/25 10:18:31;;;;;;;11.93;2.42;;;15.90;99.90;;;;;;5155681;27;20047;-72
2022/10/25 10:21:08;;;;;;;10.32;2.80;;;15.90;99.90;;;;;;5155894;27;20039;-70
2022/10/25 10:24:03;;;;;;;11.70;2.50;;;15.70;99.90;;;;;;5119480;27;20046;-70
2022/10/25 10:26:45;;;;;;;12.30;2.50;;;15.60;99.90;;;;;;5154536;27;20043;-69
2022/10/25 10:29:15;;;;;;;12.15;2.78;;;15.50;99.90;;;;;;5136412;27;20050;-69
2022/10/25 10:31:45;;;;;;;11.73;2.78;;;15.50;99.90;;;;;;5153823;27;20064;-69
2022/10/25 10:34:30;;;;;;;9.27;2.60;;;15.50;99.90;;;;;;5156583;27;20031;-70
2022/10/25 10:37:40;;;;;;;13.32;3.33;;;15.60;99.90;;;;;;5155630;27;20074;-70
2022/10/25 10:40:06;;;;;;;11.82;2.72;;;15.60;99.90;;;;;;5050996;28;20076;-71
2022/10/25 10:42:36;;;;;;;8.63;2.15;;;15.60;99.90;;;;;;5115771;27;20054;-71
2022/10/25 10:45:14;;;;;;;5.60;1.77;;;15.80;99.90;;;;;;5138035;27;20045;-72
2022/10/25 10:47:48;;;;;;;12.05;2.50;;;16.00;99.90;;;;;;5137371;27;20493;-71
2022/10/25 10:50:41;;;;;;;11.05;2.70;;;15.90;99.90;;;;;;5141109;27;20038;-69
2022/10/25 10:53:21;;;;;;;9.55;2.63;;;15.90;99.90;;;;;;5155741;27;20103;-70
2022/10/25 10:55:49;;;;;;;12.80;2.67;;;15.90;99.90;;;;;;5136807;27;20126;-70
2022/10/25 10:58:33;;;;;;;9.43;2.78;;;15.90;99.90;;;;;;5118917;27;20473;-70
2022/10/25 11:01:05;;;;;;;10.38;2.58;;;15.90;99.90;;;;;;5154404;27;20061;-73
2022/10/25 11:03:40;;;;;;;10.82;2.65;;;16.00;99.90;;;;;;5135957;27;20125;-69
2022/10/25 11:06:29;;;;;;;9.90;2.67;;;16.10;99.90;;;;;;5120445;27;20122;-69
2022/10/25 11:09:31;;;;;;;11.20;2.60;;;16.10;99.90;;;;;;5143274;27;20046;-70
2022/10/25 11:12:21;;;;;;;9.65;2.30;;;16.10;99.90;;;;;;5148872;27;20351;-71
2022/10/25 11:14:46;;;;;;;;;;;16.10;99.90;;;;;;5159799;27;20049;-70
2022/10/25 11:17:35;;;;;;;7.50;2.30;;;16.10;99.90;;;;;;5159114;27;19915;-72
2022/10/25 11:20:20;;;;;;;12.60;2.22;;;16.10;99.90;;;;;;5141143;27;20078;-70
2022/10/25 11:23:12;;;;;;;7.13;1.98;;;16.20;99.90;;;;;;5123370;27;20493;-70
2022/10/25 11:25:41;;;;;;;13.90;1.83;;;16.10;99.90;;;;;;5142762;27;20038;-71
2022/10/25 11:28:25;;;;;;;9.40;1.85;;;16.00;99.90;;;;;;5159682;27;20058;-71
2022/10/25 11:31:22;;;;;;;11.35;1.80;;;15.90;99.90;;;;;;5141722;27;20042;-72
2022/10/25 11:34:21;;;;;;;10.27;1.83;;;15.90;99.90;;;;;;5159063;27;20043;-71
2022/10/25 11:37:12;;;;;;;13.68;2.70;;;15.80;99.90;;;;;;5159473;27;20095;-71
2022/10/25 11:40:12;;;;;;;7.10;1.70;;;15.80;99.90;;;;;;5141709;27;20049;-69
2022/10/25 11:43:00;;;;;;;8.10;1.90;;;15.80;99.90;;;;;;5143680;27;20120;-72
2022/10/25 11:45:47;;;;;;;8.45;2.03;;;15.70;99.90;;;;;;5160348;27;20323;-71
2022/10/25 11:48:16;;;;;;;9.00;2.10;;;15.80;99.90;;;;;;5159043;27;20039;-71
2022/10/25 11:50:50;;;;;;;6.13;1.65;;;16.00;99.90;;;;;;5141229;27;20481;-71
2022/10/25 11:53:38;;;;;;;13.60;1.77;;;16.10;99.90;;;;;;5141401;27;20039;-70
2022/10/25 11:56:25;;;;;;;10.25;1.50;;;16.20;99.90;;;;;;5108331;27;20042;-72
2022/10/25 11:59:25;;;;;;;6.63;1.73;;;16.30;99.90;;;;;;5159309;27;20169;-71
2022/10/25 12:02:31;;;;;;;9.32;1.75;;;16.40;99.90;;;;;;5159734;27;20067;-73
2022/10/25 12:05:27;;;;;;;4.97;1.30;;;16.50;99.90;;;;;;5158563;27;20140;-74
2022/10/25 12:08:11;;;;;;;7.32;1.40;;;16.40;99.90;;;;;;5157853;27;20099;-70
2022/10/25 12:10:46;;;;;;;7.97;1.58;;;16.40;99.90;;;;;;5157395;27;20047;-72
2022/10/25 12:13:25;;;;;;;8.07;1.77;;;16.50;99.90;;;;;;5139842;27;20389;-73
2022/10/25 12:15:54;;;;;;;8.07;1.75;;;16.60;99.90;;;;;;5139249;27;20046;-73
2022/10/25 12:18:28;;;;;;;8.23;1.73;;;16.60;99.90;;;;;;5138728;27;20053;-71
2022/10/25 12:20:55;;;;;;;9.05;2.38;;;16.60;99.90;;;;;;5139843;27;20058;-71
2022/10/25 12:23:24;;;;;;;8.18;2.20;;;16.70;99.90;;;;;;5139315;27;20129;-72
2022/10/25 12:26:05;;;;;;;8.70;2.67;;;16.70;99.90;;;;;;5158665;27;20042;-72
2022/10/25 12:28:47;;;;;;;7.00;1.60;;;16.80;99.90;;;;;;5141288;27;20615;-71
2022/10/25 12:31:39;;;;;;;8.68;1.98;;;16.90;99.90;;;;;;5158623;27;20050;-72
2022/10/25 12:34:25;;;;;;;8.15;2.00;;;16.90;99.90;;;;;;5145318;27;20058;-72
2022/10/25 12:36:55;;;;;;;7.50;1.55;;;17.00;99.90;;;;;;5140801;27;20043;-70
2022/10/25 12:39:41;;;;;;;9.10;1.50;;;17.00;99.90;;;;;;5141276;27;20034;-72
2022/10/25 12:42:14;;;;;;;7.93;1.50;;;17.20;99.90;;;;;;5139455;27;20474;-71
2022/10/25 12:44:52;;;;;;;9.77;2.05;;;17.40;99.90;;;;;;5138615;27;20050;-72
2022/10/25 12:47:33;;;;;;;7.97;2.15;;;17.40;99.90;;;;;;5138579;27;20359;-74
2022/10/25 12:50:17;;;;;;;12.05;1.67;;;17.20;99.90;;;;;;5140029;27;20366;-72
2022/10/25 12:53:02;;;;;;;8.50;1.75;;;17.30;99.90;;;;;;5158403;27;20046;-71
2022/10/25 12:56:00;;;;;;;8.93;1.55;;;17.30;99.90;;;;;;5159026;27;20046;-71
2022/10/25 12:58:53;;;;;;;7.43;1.50;;;17.30;99.90;;;;;;5158245;27;20099;-72
2022/10/25 13:01:48;;;;;;;6.97;1.67;;;17.30;99.90;;;;;;5160040;27;20054;-72
2022/10/25 13:04:32;;;;;;;8.52;1.77;;;17.20;99.90;;;;;;5121884;27;20050;-71